sensor_id;sensor_type;location;lat;lon;timestamp;pressure;altitude;pressure_sealevel;temperature;humidity
39275;BME280;24980;48.874;2.332;2023-02-16T00:00:17;102136.38;;;25.04;38.36
39275;BME280;24980;48.874;2.332;2023-02-16T00:02:45;102133.80;;;25.05;38.42
39275;BME280;24980;48.874;2.332;2023-02-16T00:05:24;102132.44;;;25.05;38.51
39275;BME280;24980;48.874;2.332;2023-02-16T00:07:43;102134.14;;;25.06;38.56
39275;BME280;24980;48.874;2.332;2023-02-16T00:10:14;102133.30;;;25.07;38.62
39275;BME280;24980;48.874;2.332;2023-02-16T00:12:46;102136.86;;;25.07;38.67
39275;BME280;24980;48.874;2.332;2023-02-16T00:15:17;102134.45;;;25.08;38.71
39275;BME280;24980;48.874;2.332;2023-02-16T00:17:48;102133.78;;;25.09;38.75
39275;BME280;24980;48.874;2.332;2023-02-16T00:20:16;102129.94;;;25.11;38.80
39275;BME280;24980;48.874;2.332;2023-02-16T00:22:46;102131.47;;;25.12;38.86
39275;BME280;24980;48.874;2.332;2023-02-16T00:25:17;102127.06;;;25.12;38.93
39275;BME280;24980;48.874;2.332;2023-02-16T00:27:48;102130.88;;;25.13;38.99
39275;BME280;24980;48.874;2.332;2023-02-16T00:30:20;102127.66;;;25.14;39.04
39275;BME280;24980;48.874;2.332;2023-02-16T00:32:48;102125.62;;;25.14;39.09
39275;BME280;24980;48.874;2.332;2023-02-16T00:35:21;102125.17;;;25.14;39.15
39275;BME280;24980;48.874;2.332;2023-02-16T00:37:49;102131.70;;;25.14;39.22
39275;BME280;24980;48.874;2.332;2023-02-16T00:40:20;102126.70;;;25.14;39.29
39275;BME280;24980;48.874;2.332;2023-02-16T00:42:50;102124.50;;;25.16;39.34
39275;BME280;24980;48.874;2.332;2023-02-16T00:45:23;102124.33;;;25.17;39.42
39275;BME280;24980;48.874;2.332;2023-02-16T00:47:55;102119.81;;;25.18;39.51
39275;BME280;24980;48.874;2.332;2023-02-16T00:50:30;102119.05;;;25.19;39.59
39275;BME280;24980;48.874;2.332;2023-02-16T00:52:51;102114.69;;;25.21;39.67
39275;BME280;24980;48.874;2.332;2023-02-16T00:55:23;102108.41;;;25.21;39.72
39275;BME280;24980;48.874;2.332;2023-02-16T00:58:00;102105.95;;;25.21;39.75
39275;BME280;24980;48.874;2.332;2023-02-16T01:00:34;102102.48;;;25.22;39.79
39275;BME280;24980;48.874;2.332;2023-02-16T01:02:56;102097.56;;;25.22;39.81
39275;BME280;24980;48.874;2.332;2023-02-16T01:05:24;102099.25;;;25.23;39.84
39275;BME280;24980;48.874;2.332;2023-02-16T01:07:54;102097.56;;;25.23;39.86
39275;BME280;24980;48.874;2.332;2023-02-16T01:10:25;102102.31;;;25.23;39.89
39275;BME280;24980;48.874;2.332;2023-02-16T01:12:56;102105.34;;;25.24;39.90
39275;BME280;24980;48.874;2.332;2023-02-16T01:15:27;102099.73;;;25.24;39.93
39275;BME280;24980;48.874;2.332;2023-02-16T01:17:57;102100.84;;;25.25;39.95
39275;BME280;24980;48.874;2.332;2023-02-16T01:20:31;102101.86;;;25.24;39.97
39275;BME280;24980;48.874;2.332;2023-02-16T01:22:59;102099.05;;;25.24;40.00
39275;BME280;24980;48.874;2.332;2023-02-16T01:25:29;102098.58;;;25.23;40.03
39275;BME280;24980;48.874;2.332;2023-02-16T01:28:00;102094.25;;;25.24;40.06
39275;BME280;24980;48.874;2.332;2023-02-16T01:30:30;102099.17;;;25.24;40.08
39275;BME280;24980;48.874;2.332;2023-02-16T01:33:01;102085.23;;;25.24;40.13
39275;BME280;24980;48.874;2.332;2023-02-16T01:35:35;102090.15;;;25.25;40.18
39275;BME280;24980;48.874;2.332;2023-02-16T01:38:02;102089.05;;;25.25;40.22
39275;BME280;24980;48.874;2.332;2023-02-16T01:40:43;102090.92;;;25.26;40.25
39275;BME280;24980;48.874;2.332;2023-02-16T01:45:39;102083.88;;;25.26;40.28
39275;BME280;24980;48.874;2.332;2023-02-16T01:48:17;102082.00;;;25.25;40.31
39275;BME280;24980;48.874;2.332;2023-02-16T01:50:46;102076.31;;;25.25;40.32
39275;BME280;24980;48.874;2.332;2023-02-16T01:53:14;102071.98;;;25.25;40.36
39275;BME280;24980;48.874;2.332;2023-02-16T01:55:41;102068.94;;;25.25;40.37
39275;BME280;24980;48.874;2.332;2023-02-16T01:58:18;102065.28;;;25.25;40.38
39275;BME280;24980;48.874;2.332;2023-02-16T02:03:32;102068.42;;;25.26;40.39
39275;BME280;24980;48.874;2.332;2023-02-16T02:05:40;102064.52;;;25.26;40.40
39275;BME280;24980;48.874;2.332;2023-02-16T02:11:07;102062.83;;;25.26;40.43
39275;BME280;24980;48.874;2.332;2023-02-16T02:13:30;102057.56;;;25.26;40.45
39275;BME280;24980;48.874;2.332;2023-02-16T02:15:42;102058.92;;;25.25;40.47
39275;BME280;24980;48.874;2.332;2023-02-16T02:18:13;102050.35;;;25.24;40.48
39275;BME280;24980;48.874;2.332;2023-02-16T02:23:35;102034.91;;;25.24;40.53
39275;BME280;24980;48.874;2.332;2023-02-16T02:26:18;102041.27;;;25.25;40.54
39275;BME280;24980;48.874;2.332;2023-02-16T02:28:17;102037.88;;;25.25;40.55
39275;BME280;24980;48.874;2.332;2023-02-16T02:33:50;102031.26;;;25.25;40.58
39275;BME280;24980;48.874;2.332;2023-02-16T02:38:26;102039.48;;;25.25;40.59
39275;BME280;24980;48.874;2.332;2023-02-16T02:43:27;102042.41;;;25.23;40.65
39275;BME280;24980;48.874;2.332;2023-02-16T02:45:54;102047.24;;;25.23;40.66
39275;BME280;24980;48.874;2.332;2023-02-16T02:48:19;102051.28;;;25.24;40.68
39275;BME280;24980;48.874;2.332;2023-02-16T02:50:55;102041.95;;;25.24;40.70
39275;BME280;24980;48.874;2.332;2023-02-16T02:53:20;102040.42;;;25.25;40.71
39275;BME280;24980;48.874;2.332;2023-02-16T02:55:54;102035.50;;;25.26;40.72
39275;BME280;24980;48.874;2.332;2023-02-16T02:58:23;102037.70;;;25.25;40.72
39275;BME280;24980;48.874;2.332;2023-02-16T03:00:53;102041.02;;;25.25;40.74
39275;BME280;24980;48.874;2.332;2023-02-16T03:03:41;102037.28;;;25.24;40.76
39275;BME280;24980;48.874;2.332;2023-02-16T03:05:56;102034.73;;;25.25;40.78
39275;BME280;24980;48.874;2.332;2023-02-16T03:08:28;102032.70;;;25.25;40.80
39275;BME280;24980;48.874;2.332;2023-02-16T03:10:58;102029.81;;;25.26;40.81
39275;BME280;24980;48.874;2.332;2023-02-16T03:13:28;102023.62;;;25.27;40.81
39275;BME280;24980;48.874;2.332;2023-02-16T03:15:56;102025.20;;;25.28;40.81
39275;BME280;24980;48.874;2.332;2023-02-16T03:18:26;102025.89;;;25.29;40.82
39275;BME280;24980;48.874;2.332;2023-02-16T03:20:57;102025.97;;;25.30;40.84
39275;BME280;24980;48.874;2.332;2023-02-16T03:23:29;102022.33;;;25.30;40.85
39275;BME280;24980;48.874;2.332;2023-02-16T03:25:57;102021.56;;;25.30;40.87
39275;BME280;24980;48.874;2.332;2023-02-16T03:28:32;102021.13;;;25.29;40.89
39275;BME280;24980;48.874;2.332;2023-02-16T03:30:59;102021.19;;;25.30;40.89
39275;BME280;24980;48.874;2.332;2023-02-16T03:33:29;102022.38;;;25.31;40.90
39275;BME280;24980;48.874;2.332;2023-02-16T03:36:00;102021.78;;;25.32;40.91
39275;BME280;24980;48.874;2.332;2023-02-16T03:38:31;102021.70;;;25.32;40.93
39275;BME280;24980;48.874;2.332;2023-02-16T03:41:01;102026.11;;;25.32;40.94
39275;BME280;24980;48.874;2.332;2023-02-16T03:43:31;102023.06;;;25.33;40.95
39275;BME280;24980;48.874;2.332;2023-02-16T03:46:04;102019.41;;;25.33;40.95
39275;BME280;24980;48.874;2.332;2023-02-16T03:48:32;102018.19;;;25.33;40.97
39275;BME280;24980;48.874;2.332;2023-02-16T03:51:02;102026.42;;;25.34;40.99
39275;BME280;24980;48.874;2.332;2023-02-16T03:53:33;102029.39;;;25.34;40.99
39275;BME280;24980;48.874;2.332;2023-02-16T03:56:03;102028.12;;;25.34;41.01
39275;BME280;24980;48.874;2.332;2023-02-16T03:58:33;102028.20;;;25.36;41.04
39275;BME280;24980;48.874;2.332;2023-02-16T04:01:03;102031.23;;;25.37;41.09
39275;BME280;24980;48.874;2.332;2023-02-16T04:03:33;102030.55;;;25.38;41.14
39275;BME280;24980;48.874;2.332;2023-02-16T04:06:03;102031.31;;;25.39;41.16
39275;BME280;24980;48.874;2.332;2023-02-16T04:08:33;102033.44;;;25.39;41.17
39275;BME280;24980;48.874;2.332;2023-02-16T04:11:04;102032.17;;;25.39;41.18
39275;BME280;24980;48.874;2.332;2023-02-16T04:13:34;102028.09;;;25.39;41.18
39275;BME280;24980;48.874;2.332;2023-02-16T04:16:04;102024.45;;;25.39;41.18
39275;BME280;24980;48.874;2.332;2023-02-16T04:18:34;102021.10;;;25.40;41.16
39275;BME280;24980;48.874;2.332;2023-02-16T04:21:04;102015.42;;;25.41;41.14
39275;BME280;24980;48.874;2.332;2023-02-16T04:23:34;102025.43;;;25.41;41.13
39275;BME280;24980;48.874;2.332;2023-02-16T04:26:04;102019.55;;;25.43;41.12
39275;BME280;24980;48.874;2.332;2023-02-16T04:28:35;102020.31;;;25.43;41.12
39275;BME280;24980;48.874;2.332;2023-02-16T04:31:06;102024.59;;;25.42;41.12
39275;BME280;24980;48.874;2.332;2023-02-16T04:33:35;102025.17;;;25.42;41.13
39275;BME280;24980;48.874;2.332;2023-02-16T04:36:05;102025.86;;;25.42;41.13
39275;BME280;24980;48.874;2.332;2023-02-16T04:38:35;102022.94;;;25.43;41.13
39275;BME280;24980;48.874;2.332;2023-02-16T04:41:05;102019.62;;;25.44;41.13
39275;BME280;24980;48.874;2.332;2023-02-16T04:43:35;102017.77;;;25.44;41.13
39275;BME280;24980;48.874;2.332;2023-02-16T04:46:05;102016.91;;;25.44;41.14
39275;BME280;24980;48.874;2.332;2023-02-16T04:48:36;102021.33;;;25.45;41.14
39275;BME280;24980;48.874;2.332;2023-02-16T04:51:06;102019.20;;;25.45;41.14
39275;BME280;24980;48.874;2.332;2023-02-16T04:53:36;102013.02;;;25.44;41.15
39275;BME280;24980;48.874;2.332;2023-02-16T04:56:09;102015.22;;;25.43;41.17
39275;BME280;24980;48.874;2.332;2023-02-16T04:58:37;102015.98;;;25.44;41.17
39275;BME280;24980;48.874;2.332;2023-02-16T05:01:07;102025.31;;;25.45;41.18
39275;BME280;24980;48.874;2.332;2023-02-16T05:03:37;102024.73;;;25.46;41.19
39275;BME280;24980;48.874;2.332;2023-02-16T05:06:08;102027.83;;;25.47;41.18
39275;BME280;24980;48.874;2.332;2023-02-16T05:08:38;102025.80;;;25.48;41.18
39275;BME280;24980;48.874;2.332;2023-02-16T05:11:08;102030.97;;;25.49;41.19
39275;BME280;24980;48.874;2.332;2023-02-16T05:13:38;102039.63;;;25.49;41.20
39275;BME280;24980;48.874;2.332;2023-02-16T05:16:08;102035.05;;;25.48;41.21
39275;BME280;24980;48.874;2.332;2023-02-16T05:18:38;102033.09;;;25.47;41.24
39275;BME280;24980;48.874;2.332;2023-02-16T05:21:08;102031.14;;;25.48;41.25
39275;BME280;24980;48.874;2.332;2023-02-16T05:23:40;102029.28;;;25.49;41.24
39275;BME280;24980;48.874;2.332;2023-02-16T05:26:08;102031.31;;;25.49;41.25
39275;BME280;24980;48.874;2.332;2023-02-16T05:28:39;102026.56;;;25.50;41.25
39275;BME280;24980;48.874;2.332;2023-02-16T05:31:09;102024.78;;;25.50;41.25
39275;BME280;24980;48.874;2.332;2023-02-16T05:33:39;102020.96;;;25.51;41.26
39275;BME280;24980;48.874;2.332;2023-02-16T05:36:09;102020.70;;;25.51;41.26
39275;BME280;24980;48.874;2.332;2023-02-16T05:38:39;102018.84;;;25.51;41.27
39275;BME280;24980;48.874;2.332;2023-02-16T05:41:10;102022.58;;;25.51;41.27
39275;BME280;24980;48.874;2.332;2023-02-16T05:43:40;102021.81;;;25.52;41.29
39275;BME280;24980;48.874;2.332;2023-02-16T05:46:10;102021.02;;;25.53;41.29
39275;BME280;24980;48.874;2.332;2023-02-16T05:48:40;102028.83;;;25.54;41.32
39275;BME280;24980;48.874;2.332;2023-02-16T05:51:11;102027.21;;;25.55;41.36
39275;BME280;24980;48.874;2.332;2023-02-16T05:53:41;102021.86;;;25.55;41.40
39275;BME280;24980;48.874;2.332;2023-02-16T05:56:11;102024.63;;;25.57;41.44
39275;BME280;24980;48.874;2.332;2023-02-16T05:58:41;102025.31;;;25.57;41.42
39275;BME280;24980;48.874;2.332;2023-02-16T06:01:12;102025.31;;;25.57;41.43
39275;BME280;24980;48.874;2.332;2023-02-16T06:03:42;102027.35;;;25.58;41.44
39275;BME280;24980;48.874;2.332;2023-02-16T06:06:12;102025.56;;;25.58;41.45
39275;BME280;24980;48.874;2.332;2023-02-16T06:08:46;102024.30;;;25.59;41.46
39275;BME280;24980;48.874;2.332;2023-02-16T06:11:13;102022.39;;;25.60;41.45
39275;BME280;24980;48.874;2.332;2023-02-16T06:13:43;102019.34;;;25.61;41.44
39275;BME280;24980;48.874;2.332;2023-02-16T06:16:13;102023.84;;;25.61;41.42
39275;BME280;24980;48.874;2.332;2023-02-16T06:18:43;102023.75;;;25.61;41.42
39275;BME280;24980;48.874;2.332;2023-02-16T06:21:14;102024.43;;;25.61;41.42
39275;BME280;24980;48.874;2.332;2023-02-16T06:23:44;102028.08;;;25.61;41.42
39275;BME280;24980;48.874;2.332;2023-02-16T06:26:14;102033.17;;;25.62;41.44
39275;BME280;24980;48.874;2.332;2023-02-16T06:28:44;102028.64;;;25.63;41.45
39275;BME280;24980;48.874;2.332;2023-02-16T06:31:15;102032.21;;;25.64;41.47
39275;BME280;24980;48.874;2.332;2023-02-16T06:33:45;102035.19;;;25.63;41.48
39275;BME280;24980;48.874;2.332;2023-02-16T06:36:17;102041.72;;;25.64;41.48
39275;BME280;24980;48.874;2.332;2023-02-16T06:38:47;102055.30;;;25.65;41.47
39275;BME280;24980;48.874;2.332;2023-02-16T06:41:17;102050.89;;;25.64;41.47
39275;BME280;24980;48.874;2.332;2023-02-16T06:43:50;102048.52;;;25.63;41.48
39275;BME280;24980;48.874;2.332;2023-02-16T06:46:17;102055.05;;;25.63;41.49
39275;BME280;24980;48.874;2.332;2023-02-16T06:48:47;102063.12;;;25.64;41.48
39275;BME280;24980;48.874;2.332;2023-02-16T06:51:20;102068.35;;;25.66;41.47
39275;BME280;24980;48.874;2.332;2023-02-16T06:53:49;102074.72;;;25.66;41.47
39275;BME280;24980;48.874;2.332;2023-02-16T06:56:19;102070.64;;;25.66;41.49
39275;BME280;24980;48.874;2.332;2023-02-16T06:58:50;102074.72;;;25.65;41.51
39275;BME280;24980;48.874;2.332;2023-02-16T07:01:23;102079.13;;;25.65;41.54
39275;BME280;24980;48.874;2.332;2023-02-16T07:03:51;102080.41;;;25.66;41.55
39275;BME280;24980;48.874;2.332;2023-02-16T07:06:23;102087.97;;;25.65;41.55
39275;BME280;24980;48.874;2.332;2023-02-16T07:08:51;102088.13;;;25.65;41.55
39275;BME280;24980;48.874;2.332;2023-02-16T07:11:21;102089.78;;;25.65;41.56
39275;BME280;24980;48.874;2.332;2023-02-16T07:13:50;102088.81;;;25.65;41.56
39275;BME280;24980;48.874;2.332;2023-02-16T07:16:20;102089.19;;;25.64;41.56
39275;BME280;24980;48.874;2.332;2023-02-16T07:18:51;102094.53;;;25.64;41.57
39275;BME280;24980;48.874;2.332;2023-02-16T07:21:21;102097.51;;;25.63;41.58
39275;BME280;24980;48.874;2.332;2023-02-16T07:23:51;102099.55;;;25.63;41.61
39275;BME280;24980;48.874;2.332;2023-02-16T07:26:21;102102.77;;;25.63;41.67
39275;BME280;24980;48.874;2.332;2023-02-16T07:28:52;102099.88;;;25.62;41.74
39275;BME280;24980;48.874;2.332;2023-02-16T07:31:22;102100.81;;;25.62;41.80
39275;BME280;24980;48.874;2.332;2023-02-16T07:33:52;102105.91;;;25.63;41.85
39275;BME280;24980;48.874;2.332;2023-02-16T07:36:22;102107.86;;;25.63;41.89
39275;BME280;24980;48.874;2.332;2023-02-16T07:38:53;102111.09;;;25.63;41.91
39275;BME280;24980;48.874;2.332;2023-02-16T07:41:25;102112.34;;;25.58;41.84
39275;BME280;24980;48.874;2.332;2023-02-16T07:43:53;102108.45;;;25.41;41.58
39275;BME280;24980;48.874;2.332;2023-02-16T07:46:23;102110.88;;;25.22;41.28
39275;BME280;24980;48.874;2.332;2023-02-16T07:48:55;102108.80;;;25.01;41.05
39275;BME280;24980;48.874;2.332;2023-02-16T07:51:25;102106.12;;;24.85;40.78
39275;BME280;24980;48.874;2.332;2023-02-16T07:53:55;102101.48;;;24.72;40.55
39275;BME280;24980;48.874;2.332;2023-02-16T07:56:27;102099.08;;;24.62;40.33
39275;BME280;24980;48.874;2.332;2023-02-16T07:59:01;102108.70;;;24.52;40.13
39275;BME280;24980;48.874;2.332;2023-02-16T08:01:25;102110.67;;;24.41;40.00
39275;BME280;24980;48.874;2.332;2023-02-16T08:03:57;102118.59;;;24.32;39.89
39275;BME280;24980;48.874;2.332;2023-02-16T08:06:26;102123.84;;;24.24;39.78
39275;BME280;24980;48.874;2.332;2023-02-16T08:08:57;102127.27;;;24.16;39.67
39275;BME280;24980;48.874;2.332;2023-02-16T08:11:27;102128.02;;;24.09;39.55
39275;BME280;24980;48.874;2.332;2023-02-16T08:13:58;102126.84;;;24.07;39.46
39275;BME280;24980;48.874;2.332;2023-02-16T08:16:28;102127.69;;;24.11;39.36
39275;BME280;24980;48.874;2.332;2023-02-16T08:19:01;102132.25;;;24.21;39.33
39275;BME280;24980;48.874;2.332;2023-02-16T08:21:30;102131.14;;;24.29;39.32
39275;BME280;24980;48.874;2.332;2023-02-16T08:24:07;102132.81;;;24.35;39.33
39275;BME280;24980;48.874;2.332;2023-02-16T08:26:36;102127.20;;;24.41;39.35
39275;BME280;24980;48.874;2.332;2023-02-16T08:29:00;102127.62;;;24.47;39.35
39275;BME280;24980;48.874;2.332;2023-02-16T08:31:32;102124.88;;;24.51;39.37
39275;BME280;24980;48.874;2.332;2023-02-16T08:34:01;102119.78;;;24.54;39.39
39275;BME280;24980;48.874;2.332;2023-02-16T08:36:36;102117.64;;;24.56;39.42
39275;BME280;24980;48.874;2.332;2023-02-16T08:39:03;102108.75;;;24.59;39.43
39275;BME280;24980;48.874;2.332;2023-02-16T08:41:34;102097.45;;;24.60;39.40
39275;BME280;24980;48.874;2.332;2023-02-16T08:44:03;102101.95;;;24.61;39.40
39275;BME280;24980;48.874;2.332;2023-02-16T08:46:34;102101.84;;;24.63;39.41
39275;BME280;24980;48.874;2.332;2023-02-16T08:49:03;102095.75;;;24.65;39.43
39275;BME280;24980;48.874;2.332;2023-02-16T08:51:36;102094.20;;;24.68;39.46
39275;BME280;24980;48.874;2.332;2023-02-16T08:54:05;102099.36;;;24.70;39.51
39275;BME280;24980;48.874;2.332;2023-02-16T08:56:35;102097.16;;;24.72;39.54
39275;BME280;24980;48.874;2.332;2023-02-16T08:59:05;102094.43;;;24.74;39.57
39275;BME280;24980;48.874;2.332;2023-02-16T09:01:35;102093.08;;;24.75;39.60
39275;BME280;24980;48.874;2.332;2023-02-16T09:04:05;102095.27;;;24.77;39.62
39275;BME280;24980;48.874;2.332;2023-02-16T09:06:38;102104.00;;;24.78;39.64
39275;BME280;24980;48.874;2.332;2023-02-16T09:09:07;102107.90;;;24.78;39.66
39275;BME280;24980;48.874;2.332;2023-02-16T09:11:37;102115.02;;;24.78;39.67
39275;BME280;24980;48.874;2.332;2023-02-16T09:14:07;102120.76;;;24.79;39.68
39275;BME280;24980;48.874;2.332;2023-02-16T09:16:38;102131.62;;;24.80;39.70
39275;BME280;24980;48.874;2.332;2023-02-16T09:19:08;102139.09;;;24.83;39.69
39275;BME280;24980;48.874;2.332;2023-02-16T09:21:38;102137.32;;;24.83;39.70
39275;BME280;24980;48.874;2.332;2023-02-16T09:24:09;102133.67;;;24.84;39.70
39275;BME280;24980;48.874;2.332;2023-02-16T09:26:39;102150.81;;;24.85;39.70
39275;BME280;24980;48.874;2.332;2023-02-16T09:29:11;102156.89;;;24.85;39.70
39275;BME280;24980;48.874;2.332;2023-02-16T09:31:41;102154.77;;;24.85;39.71
39275;BME280;24980;48.874;2.332;2023-02-16T09:34:19;102150.78;;;24.86;39.71
39275;BME280;24980;48.874;2.332;2023-02-16T09:36:44;102140.02;;;24.86;39.71
39275;BME280;24980;48.874;2.332;2023-02-16T09:39:14;102135.87;;;24.87;39.72
39275;BME280;24980;48.874;2.332;2023-02-16T09:42:05;102132.81;;;24.88;39.76
39275;BME280;24980;48.874;2.332;2023-02-16T09:46:45;102127.20;;;24.90;39.85
39275;BME280;24980;48.874;2.332;2023-02-16T09:49:30;102128.47;;;24.90;39.89
39275;BME280;24980;48.874;2.332;2023-02-16T09:51:46;102136.53;;;24.91;39.89
39275;BME280;24980;48.874;2.332;2023-02-16T09:54:39;102133.73;;;24.92;39.88
39275;BME280;24980;48.874;2.332;2023-02-16T09:56:55;102135.48;;;24.92;39.86
39275;BME280;24980;48.874;2.332;2023-02-16T09:59:40;102143.03;;;24.93;39.84
39275;BME280;24980;48.874;2.332;2023-02-16T10:04:29;102140.41;;;24.92;39.81
39275;BME280;24980;48.874;2.332;2023-02-16T10:07:01;102142.78;;;24.92;39.80
39275;BME280;24980;48.874;2.332;2023-02-16T10:09:19;102143.46;;;24.93;39.80
39275;BME280;24980;48.874;2.332;2023-02-16T10:11:56;102146.96;;;24.90;39.82
39275;BME280;24980;48.874;2.332;2023-02-16T10:14:31;102136.02;;;24.91;39.82
39275;BME280;24980;48.874;2.332;2023-02-16T10:16:56;102139.58;;;24.91;39.82
39275;BME280;24980;48.874;2.332;2023-02-16T10:19:33;102136.92;;;24.92;39.82
39275;BME280;24980;48.874;2.332;2023-02-16T10:21:57;102144.14;;;24.93;39.82
39275;BME280;24980;48.874;2.332;2023-02-16T10:24:27;102144.64;;;24.93;39.83
39275;BME280;24980;48.874;2.332;2023-02-16T10:27:04;102146.00;;;24.93;39.86
39275;BME280;24980;48.874;2.332;2023-02-16T10:29:25;102144.98;;;24.92;39.88
39275;BME280;24980;48.874;2.332;2023-02-16T10:32:18;102141.88;;;24.91;39.90
39275;BME280;24980;48.874;2.332;2023-02-16T10:34:50;102147.61;;;24.92;39.91
39275;BME280;24980;48.874;2.332;2023-02-16T10:39:38;102145.32;;;24.92;39.95
39275;BME280;24980;48.874;2.332;2023-02-16T10:42:17;102143.23;;;24.90;39.96
39275;BME280;24980;48.874;2.332;2023-02-16T10:44:38;102144.24;;;24.90;39.96
39275;BME280;24980;48.874;2.332;2023-02-16T10:47:01;102154.75;;;24.88;39.98
39275;BME280;24980;48.874;2.332;2023-02-16T10:49:29;102154.86;;;24.87;40.00
39275;BME280;24980;48.874;2.332;2023-02-16T10:52:00;102152.30;;;24.85;39.99
39275;BME280;24980;48.874;2.332;2023-02-16T10:54:29;102150.13;;;24.85;39.98
39275;BME280;24980;48.874;2.332;2023-02-16T10:57:00;102146.56;;;24.83;39.98
39275;BME280;24980;48.874;2.332;2023-02-16T11:02:08;102154.22;;;24.82;39.98
39275;BME280;24980;48.874;2.332;2023-02-16T11:04:34;102152.73;;;24.80;39.98
39275;BME280;24980;48.874;2.332;2023-02-16T11:07:04;102152.39;;;24.80;39.99
39275;BME280;24980;48.874;2.332;2023-02-16T11:09:30;102150.70;;;24.79;40.00
39275;BME280;24980;48.874;2.332;2023-02-16T11:12:12;102151.31;;;24.78;40.03
39275;BME280;24980;48.874;2.332;2023-02-16T11:14:30;102151.30;;;24.77;40.09
39275;BME280;24980;48.874;2.332;2023-02-16T11:17:09;102153.52;;;24.78;40.12
39275;BME280;24980;48.874;2.332;2023-02-16T11:19:33;102147.59;;;24.79;40.16
39275;BME280;24980;48.874;2.332;2023-02-16T11:22:02;102145.78;;;24.80;40.19
39275;BME280;24980;48.874;2.332;2023-02-16T11:24:36;102142.41;;;24.82;40.26
39275;BME280;24980;48.874;2.332;2023-02-16T11:29:34;102134.44;;;24.84;40.40
39275;BME280;24980;48.874;2.332;2023-02-16T11:32:07;102136.81;;;24.84;40.47
39275;BME280;24980;48.874;2.332;2023-02-16T11:34:38;102134.35;;;24.83;40.53
39275;BME280;24980;48.874;2.332;2023-02-16T11:37:28;102129.59;;;24.83;40.58
39275;BME280;24980;48.874;2.332;2023-02-16T11:39:38;102126.12;;;24.82;40.63
39275;BME280;24980;48.874;2.332;2023-02-16T11:42:17;102126.97;;;24.82;40.68
39275;BME280;24980;48.874;2.332;2023-02-16T11:44:48;102120.68;;;24.80;40.73
39275;BME280;24980;48.874;2.332;2023-02-16T11:49:39;102126.05;;;24.78;40.85
39275;BME280;24980;48.874;2.332;2023-02-16T11:52:25;102115.78;;;24.77;40.90
39275;BME280;24980;48.874;2.332;2023-02-16T11:54:47;102110.94;;;24.77;40.97
39275;BME280;24980;48.874;2.332;2023-02-16T11:57:11;102106.53;;;24.76;41.06
39275;BME280;24980;48.874;2.332;2023-02-16T11:59:41;102108.23;;;24.77;41.15
39275;BME280;24980;48.874;2.332;2023-02-16T12:02:25;102101.37;;;24.77;41.25
39275;BME280;24980;48.874;2.332;2023-02-16T12:09:52;102093.98;;;24.84;41.47
39275;BME280;24980;48.874;2.332;2023-02-16T12:19:55;102081.48;;;24.89;41.72
39275;BME280;24980;48.874;2.332;2023-02-16T12:27:36;102082.80;;;24.95;41.90
39275;BME280;24980;48.874;2.332;2023-02-16T12:30:04;102082.91;;;24.94;41.97
39275;BME280;24980;48.874;2.332;2023-02-16T12:32:39;102084.58;;;24.95;42.02
39275;BME280;24980;48.874;2.332;2023-02-16T12:37:38;102077.48;;;24.94;42.16
39275;BME280;24980;48.874;2.332;2023-02-16T12:40:08;102070.61;;;24.93;42.22
39275;BME280;24980;48.874;2.332;2023-02-16T12:44:59;102056.27;;;24.92;42.36
39275;BME280;24980;48.874;2.332;2023-02-16T12:47:35;102056.35;;;24.92;42.42
39275;BME280;24980;48.874;2.332;2023-02-16T12:50:06;102052.45;;;24.93;42.47
39275;BME280;24980;48.874;2.332;2023-02-16T12:52:38;102052.37;;;24.92;42.53
39275;BME280;24980;48.874;2.332;2023-02-16T12:55:00;102050.77;;;24.94;42.57
39275;BME280;24980;48.874;2.332;2023-02-16T12:57:29;102062.12;;;24.93;42.62
39275;BME280;24980;48.874;2.332;2023-02-16T13:00:02;102062.55;;;24.92;42.65
39275;BME280;24980;48.874;2.332;2023-02-16T13:02:31;102059.95;;;24.91;42.67
39275;BME280;24980;48.874;2.332;2023-02-16T13:05:21;102050.09;;;24.88;42.71
39275;BME280;24980;48.874;2.332;2023-02-16T13:07:39;102058.44;;;24.87;42.73
39275;BME280;24980;48.874;2.332;2023-02-16T13:10:14;102054.11;;;24.86;42.75
39275;BME280;24980;48.874;2.332;2023-02-16T13:12:33;102053.62;;;24.84;42.76
39275;BME280;24980;48.874;2.332;2023-02-16T13:15:12;102051.24;;;24.83;42.78
39275;BME280;24980;48.874;2.332;2023-02-16T13:17:41;102049.75;;;24.82;42.79
39275;BME280;24980;48.874;2.332;2023-02-16T13:20:02;102048.86;;;24.80;42.81
39275;BME280;24980;48.874;2.332;2023-02-16T13:25:26;102035.57;;;24.78;42.86
39275;BME280;24980;48.874;2.332;2023-02-16T13:27:53;102035.06;;;24.77;42.89
39275;BME280;24980;48.874;2.332;2023-02-16T13:32:47;102034.83;;;24.75;42.93
39275;BME280;24980;48.874;2.332;2023-02-16T13:40:19;102029.23;;;24.74;42.97
39275;BME280;24980;48.874;2.332;2023-02-16T13:45:19;102019.16;;;24.72;43.02
39275;BME280;24980;48.874;2.332;2023-02-16T13:47:37;102015.00;;;24.71;43.05
39275;BME280;24980;48.874;2.332;2023-02-16T13:50:25;102009.58;;;24.70;43.06
39275;BME280;24980;48.874;2.332;2023-02-16T13:52:40;102004.42;;;24.68;43.07
39275;BME280;24980;48.874;2.332;2023-02-16T14:00:27;101997.75;;;24.64;43.08
39275;BME280;24980;48.874;2.332;2023-02-16T14:02:54;101995.29;;;24.63;43.08
39275;BME280;24980;48.874;2.332;2023-02-16T14:05:20;101988.79;;;24.62;43.07
39275;BME280;24980;48.874;2.332;2023-02-16T14:07:42;101981.92;;;24.61;43.10
39275;BME280;24980;48.874;2.332;2023-02-16T14:10:13;101983.53;;;24.60;43.14
39275;BME280;24980;48.874;2.332;2023-02-16T14:12:42;101985.13;;;24.60;43.20
39275;BME280;24980;48.874;2.332;2023-02-16T14:15:18;101985.50;;;24.59;43.23
39275;BME280;24980;48.874;2.332;2023-02-16T14:17:43;101989.31;;;24.58;43.25